SND280 NFFN-AGGH
Flight info
| Callsign | SND280 |
|---|---|
| Flight time | 2h 25m |
| Altitude | 38000 |
| Route | ALPHA NN DCT ISMOP DCT INTID DCT ISPAL DCT TAVER DCT LEGOT DCT VAKRO VAKRO1A |
| Aircraft | A20N/M-SDE2E3FGHIRWXY/LB1 |
Departure
| Time | 2026-05-09 10:03 |
|---|---|
| Airport | Nadi International Airport (NFFN) |
Arrival
| Time | 2026-05-09 12:28 |
|---|---|
| Airport | Honiara International Airport (AGGH) |
| Time | Latitude | Longitude | Altitude | Speed | Heading |
|---|---|---|---|---|---|
| 2026-05-09 09:44 | -17.75415 | 177.44977 | 79 ft | 0 kts | 107° |
| 2026-05-09 09:54 | -17.75410 | 177.44962 | 52 ft | 3 kts | 123° |
| 2026-05-09 09:54 | -17.75396 | 177.44947 | 48 ft | 3 kts | 150° |
| 2026-05-09 09:54 | -17.75378 | 177.44940 | 50 ft | 3 kts | 178° |
| 2026-05-09 09:55 | -17.75369 | 177.44940 | 50 ft | 0 kts | 188° |
| 2026-05-09 09:57 | -17.75410 | 177.44932 | 52 ft | 11 kts | 191° |
| 2026-05-09 09:58 | -17.75509 | 177.44899 | 51 ft | 19 kts | 200° |
| 2026-05-09 09:58 | -17.75577 | 177.44788 | 51 ft | 23 kts | 280° |
| 2026-05-09 09:58 | -17.75617 | 177.44622 | 50 ft | 25 kts | 255° |
| 2026-05-09 09:58 | -17.75600 | 177.44446 | 49 ft | 27 kts | 283° |
| 2026-05-09 09:59 | -17.75612 | 177.44255 | 48 ft | 27 kts | 215° |
| 2026-05-09 09:59 | -17.75787 | 177.44121 | 49 ft | 34 kts | 217° |
| 2026-05-09 09:59 | -17.75989 | 177.43948 | 47 ft | 41 kts | 217° |
| 2026-05-09 09:59 | -17.76224 | 177.43752 | 45 ft | 46 kts | 217° |
| 2026-05-09 10:00 | -17.76486 | 177.43539 | 46 ft | 49 kts | 217° |
| 2026-05-09 10:00 | -17.76763 | 177.43318 | 45 ft | 49 kts | 216° |
| 2026-05-09 10:00 | -17.77019 | 177.43114 | 42 ft | 44 kts | 215° |
| 2026-05-09 10:00 | -17.77204 | 177.42964 | 41 ft | 12 kts | 227° |
| 2026-05-09 10:01 | -17.77241 | 177.42875 | 40 ft | 16 kts | 255° |
| 2026-05-09 10:01 | -17.77309 | 177.42869 | 40 ft | 9 kts | 114° |
| 2026-05-09 10:01 | -17.77308 | 177.42883 | 38 ft | 1 kts | 55° |
| 2026-05-09 10:01 | -17.77264 | 177.42918 | 39 ft | 28 kts | 36° |
| 2026-05-09 10:02 | -17.76914 | 177.43197 | 44 ft | 95 kts | 38° |
| 2026-05-09 10:02 | -17.76250 | 177.43735 | 46 ft | 146 kts | 38° |
| 2026-05-09 10:02 | -17.75332 | 177.44489 | 110 ft | 187 kts | 36° |
| 2026-05-09 10:02 | -17.74278 | 177.45397 | 596 ft | 199 kts | 37° |
| 2026-05-09 10:03 | -17.73106 | 177.46268 | 1165 ft | 216 kts | 21° |
| 2026-05-09 10:03 | -17.71619 | 177.46447 | 2025 ft | 216 kts | 347° |
| 2026-05-09 10:03 | -17.70247 | 177.45781 | 2526 ft | 229 kts | 320° |
| 2026-05-09 10:03 | -17.69058 | 177.44509 | 2723 ft | 261 kts | 309° |
| 2026-05-09 10:04 | -17.67861 | 177.42936 | 3103 ft | 287 kts | 305° |
| 2026-05-09 10:04 | -17.66686 | 177.41163 | 3640 ft | 304 kts | 301° |
| 2026-05-09 10:04 | -17.65577 | 177.39243 | 4457 ft | 310 kts | 298° |
| 2026-05-09 10:04 | -17.64484 | 177.37291 | 5386 ft | 311 kts | 300° |
| 2026-05-09 10:05 | -17.63323 | 177.35384 | 6273 ft | 314 kts | 302° |
| 2026-05-09 10:05 | -17.62155 | 177.33494 | 7156 ft | 311 kts | 300° |
| 2026-05-09 10:05 | -17.61038 | 177.31599 | 8235 ft | 299 kts | 299° |
| 2026-05-09 10:05 | -17.60102 | 177.29702 | 9372 ft | 290 kts | 295° |
| 2026-05-09 10:06 | -17.59231 | 177.27792 | 10165 ft | 291 kts | 296° |
| 2026-05-09 10:06 | -17.58304 | 177.25827 | 10440 ft | 312 kts | 296° |
| 2026-05-09 10:06 | -17.57283 | 177.23729 | 10613 ft | 333 kts | 297° |
| 2026-05-09 10:06 | -17.56176 | 177.21527 | 10936 ft | 347 kts | 297° |
| 2026-05-09 10:07 | -17.55027 | 177.19281 | 11545 ft | 351 kts | 298° |
| 2026-05-09 10:07 | -17.53874 | 177.17043 | 12199 ft | 354 kts | 298° |
| 2026-05-09 10:07 | -17.52695 | 177.14761 | 12839 ft | 358 kts | 298° |
| 2026-05-09 10:07 | -17.51502 | 177.12449 | 13475 ft | 362 kts | 298° |
| 2026-05-09 10:08 | -17.50298 | 177.10116 | 14063 ft | 366 kts | 298° |
| 2026-05-09 10:08 | -17.49082 | 177.07761 | 14625 ft | 369 kts | 298° |
| 2026-05-09 10:08 | -17.47855 | 177.05386 | 15178 ft | 372 kts | 298° |
| 2026-05-09 10:08 | -17.46616 | 177.02985 | 15746 ft | 375 kts | 298° |
| 2026-05-09 10:09 | -17.45383 | 177.00599 | 16278 ft | 379 kts | 298° |
| 2026-05-09 10:09 | -17.44123 | 176.98162 | 16814 ft | 382 kts | 298° |
| 2026-05-09 10:09 | -17.42850 | 176.95701 | 17330 ft | 387 kts | 297° |
| 2026-05-09 10:09 | -17.41562 | 176.93208 | 17883 ft | 389 kts | 298° |
| 2026-05-09 10:10 | -17.40265 | 176.90703 | 18345 ft | 394 kts | 297° |
| 2026-05-09 10:10 | -17.38960 | 176.88182 | 18861 ft | 394 kts | 297° |
| 2026-05-09 10:10 | -17.37650 | 176.85654 | 19356 ft | 396 kts | 297° |
| 2026-05-09 10:10 | -17.36335 | 176.83109 | 19822 ft | 399 kts | 297° |
| 2026-05-09 10:11 | -17.35007 | 176.80551 | 20295 ft | 401 kts | 297° |
| 2026-05-09 10:11 | -17.33671 | 176.77973 | 20771 ft | 403 kts | 297° |
| 2026-05-09 10:11 | -17.32330 | 176.75386 | 21232 ft | 406 kts | 297° |
| 2026-05-09 10:11 | -17.30978 | 176.72781 | 21703 ft | 408 kts | 297° |
| 2026-05-09 10:12 | -17.29618 | 176.70160 | 22158 ft | 411 kts | 297° |
| 2026-05-09 10:12 | -17.28269 | 176.67561 | 22612 ft | 413 kts | 296° |
| 2026-05-09 10:12 | -17.26875 | 176.64879 | 23074 ft | 415 kts | 296° |
| 2026-05-09 10:12 | -17.25493 | 176.62220 | 23515 ft | 418 kts | 296° |
| 2026-05-09 10:13 | -17.24117 | 176.59574 | 23897 ft | 420 kts | 296° |
| 2026-05-09 10:13 | -17.22721 | 176.56891 | 24302 ft | 421 kts | 296° |
| 2026-05-09 10:13 | -17.21320 | 176.54199 | 24698 ft | 422 kts | 296° |
| 2026-05-09 10:13 | -17.19912 | 176.51495 | 25065 ft | 424 kts | 296° |
| 2026-05-09 10:14 | -17.18497 | 176.48780 | 25436 ft | 425 kts | 295° |
| 2026-05-09 10:14 | -17.17080 | 176.46060 | 25800 ft | 427 kts | 295° |
| 2026-05-09 10:14 | -17.15655 | 176.43327 | 26158 ft | 428 kts | 295° |
| 2026-05-09 10:14 | -17.14224 | 176.40582 | 26510 ft | 430 kts | 295° |
| 2026-05-09 10:15 | -17.12792 | 176.37837 | 26848 ft | 432 kts | 295° |
| 2026-05-09 10:15 | -17.11350 | 176.35074 | 27181 ft | 433 kts | 295° |
| 2026-05-09 10:15 | -17.09903 | 176.32302 | 27510 ft | 435 kts | 295° |
| 2026-05-09 10:15 | -17.08449 | 176.29519 | 27837 ft | 436 kts | 294° |
| 2026-05-09 10:16 | -17.06989 | 176.26725 | 28150 ft | 437 kts | 294° |
| 2026-05-09 10:16 | -17.05529 | 176.23932 | 28458 ft | 439 kts | 294° |
| 2026-05-09 10:16 | -17.04063 | 176.21128 | 28754 ft | 440 kts | 294° |
| 2026-05-09 10:16 | -17.02592 | 176.18315 | 29054 ft | 442 kts | 294° |
| 2026-05-09 10:17 | -17.01618 | 176.16455 | 29297 ft | 441 kts | 294° |
| 2026-05-09 10:17 | -17.00140 | 176.13633 | 29516 ft | 444 kts | 294° |
| 2026-05-09 10:17 | -16.98166 | 176.09861 | 29832 ft | 447 kts | 294° |
| 2026-05-09 10:17 | -16.97157 | 176.07936 | 30036 ft | 448 kts | 294° |
| 2026-05-09 10:18 | -16.95658 | 176.05077 | 30277 ft | 449 kts | 294° |
| 2026-05-09 10:18 | -16.94153 | 176.02205 | 30508 ft | 451 kts | 294° |
| 2026-05-09 10:18 | -16.92645 | 175.99330 | 30743 ft | 452 kts | 294° |
| 2026-05-09 10:18 | -16.91130 | 175.96443 | 30982 ft | 454 kts | 294° |
| 2026-05-09 10:19 | -16.89614 | 175.93556 | 31274 ft | 454 kts | 294° |
| 2026-05-09 10:19 | -16.88093 | 175.90662 | 31590 ft | 453 kts | 294° |
| 2026-05-09 10:19 | -16.86577 | 175.87778 | 31910 ft | 452 kts | 294° |
| 2026-05-09 10:19 | -16.85072 | 175.84906 | 32222 ft | 451 kts | 293° |
| 2026-05-09 10:20 | -16.83618 | 175.82055 | 32519 ft | 450 kts | 292° |
| 2026-05-09 10:20 | -16.82166 | 175.79170 | 32832 ft | 448 kts | 292° |
| 2026-05-09 10:20 | -16.80718 | 175.76293 | 33155 ft | 447 kts | 292° |
| 2026-05-09 10:20 | -16.79272 | 175.73428 | 33411 ft | 446 kts | 292° |
| 2026-05-09 10:21 | -16.77823 | 175.70564 | 33664 ft | 446 kts | 292° |
| 2026-05-09 10:21 | -16.76373 | 175.67704 | 33921 ft | 445 kts | 292° |
| 2026-05-09 10:21 | -16.74925 | 175.64851 | 34143 ft | 444 kts | 292° |
| 2026-05-09 10:21 | -16.73481 | 175.62008 | 34368 ft | 443 kts | 292° |
| 2026-05-09 10:22 | -16.72039 | 175.59167 | 34577 ft | 443 kts | 293° |
| 2026-05-09 10:22 | -16.70594 | 175.56325 | 34779 ft | 442 kts | 293° |
| 2026-05-09 10:22 | -16.69173 | 175.53529 | 34973 ft | 441 kts | 293° |
| 2026-05-09 10:22 | -16.67736 | 175.50701 | 35166 ft | 441 kts | 293° |
| 2026-05-09 10:23 | -16.66296 | 175.47869 | 35358 ft | 440 kts | 293° |
| 2026-05-09 10:23 | -16.64861 | 175.45048 | 35549 ft | 440 kts | 294° |
| 2026-05-09 10:23 | -16.63420 | 175.42216 | 35632 ft | 442 kts | 294° |
| 2026-05-09 10:23 | -16.61977 | 175.39385 | 35847 ft | 441 kts | 294° |
| 2026-05-09 10:24 | -16.60534 | 175.36558 | 36060 ft | 440 kts | 294° |
| 2026-05-09 10:24 | -16.59097 | 175.33742 | 36251 ft | 440 kts | 294° |
| 2026-05-09 10:24 | -16.57662 | 175.30930 | 36440 ft | 439 kts | 294° |
| 2026-05-09 10:24 | -16.56247 | 175.28157 | 36624 ft | 439 kts | 294° |
| 2026-05-09 10:25 | -16.54815 | 175.25354 | 36807 ft | 438 kts | 294° |
| 2026-05-09 10:25 | -16.53383 | 175.22551 | 36987 ft | 437 kts | 294° |
| 2026-05-09 10:25 | -16.51954 | 175.19755 | 37171 ft | 437 kts | 294° |
| 2026-05-09 10:25 | -16.50524 | 175.16958 | 37337 ft | 436 kts | 294° |
| 2026-05-09 10:26 | -16.49095 | 175.14167 | 37499 ft | 436 kts | 295° |
| 2026-05-09 10:26 | -16.47666 | 175.11376 | 37652 ft | 435 kts | 295° |
| 2026-05-09 10:26 | -16.46260 | 175.08632 | 37802 ft | 435 kts | 295° |
| 2026-05-09 10:26 | -16.44837 | 175.05854 | 37910 ft | 435 kts | 295° |
| 2026-05-09 10:27 | -16.43416 | 175.03080 | 37940 ft | 433 kts | 295° |
| 2026-05-09 10:27 | -16.40587 | 174.97562 | 37939 ft | 432 kts | 295° |
| 2026-05-09 10:28 | -16.37752 | 174.92035 | 37939 ft | 432 kts | 295° |
| 2026-05-09 10:28 | -16.34919 | 174.86520 | 37940 ft | 432 kts | 295° |
| 2026-05-09 10:29 | -16.32079 | 174.80995 | 37935 ft | 432 kts | 295° |
| 2026-05-09 10:29 | -16.29236 | 174.75470 | 37937 ft | 432 kts | 295° |
| 2026-05-09 10:30 | -16.26396 | 174.69951 | 37922 ft | 433 kts | 295° |
| 2026-05-09 10:30 | -16.23567 | 174.64463 | 37931 ft | 433 kts | 295° |
| 2026-05-09 10:31 | -16.20719 | 174.58939 | 37934 ft | 433 kts | 295° |
| 2026-05-09 10:31 | -16.17870 | 174.53419 | 37936 ft | 433 kts | 295° |
| 2026-05-09 10:32 | -16.15026 | 174.47913 | 37941 ft | 434 kts | 295° |
| 2026-05-09 10:32 | -16.12168 | 174.42383 | 37938 ft | 434 kts | 295° |
| 2026-05-09 10:33 | -16.09305 | 174.36849 | 37936 ft | 434 kts | 295° |
| 2026-05-09 10:33 | -16.06439 | 174.31313 | 37937 ft | 435 kts | 295° |
| 2026-05-09 10:34 | -16.03572 | 174.25781 | 37936 ft | 433 kts | 295° |
| 2026-05-09 10:34 | -15.99312 | 174.17566 | 37933 ft | 433 kts | 295° |
| 2026-05-09 10:35 | -15.96491 | 174.12132 | 37931 ft | 433 kts | 295° |
| 2026-05-09 10:35 | -15.93631 | 174.06628 | 37931 ft | 433 kts | 295° |
| 2026-05-09 10:36 | -15.90771 | 174.01125 | 37921 ft | 433 kts | 295° |
| 2026-05-09 10:36 | -15.87906 | 173.95619 | 37914 ft | 433 kts | 295° |
| 2026-05-09 10:37 | -15.85032 | 173.90100 | 37918 ft | 434 kts | 296° |
| 2026-05-09 10:37 | -15.82154 | 173.84577 | 37919 ft | 435 kts | 296° |
| 2026-05-09 10:38 | -15.79274 | 173.79055 | 37931 ft | 435 kts | 296° |
| 2026-05-09 10:38 | -15.76382 | 173.73516 | 37930 ft | 436 kts | 296° |
| 2026-05-09 10:39 | -15.73503 | 173.68004 | 37933 ft | 437 kts | 296° |
| 2026-05-09 10:39 | -15.70601 | 173.62452 | 37942 ft | 437 kts | 296° |
| 2026-05-09 10:40 | -15.67699 | 173.56905 | 37928 ft | 437 kts | 296° |
| 2026-05-09 10:40 | -15.64804 | 173.51378 | 37928 ft | 434 kts | 296° |
| 2026-05-09 10:41 | -15.61924 | 173.45881 | 37929 ft | 434 kts | 296° |
| 2026-05-09 10:41 | -15.59037 | 173.40374 | 37928 ft | 434 kts | 296° |
| 2026-05-09 10:42 | -15.56150 | 173.34873 | 37925 ft | 434 kts | 296° |
| 2026-05-09 10:42 | -15.53275 | 173.29398 | 37920 ft | 435 kts | 296° |
| 2026-05-09 10:43 | -15.50362 | 173.23853 | 37927 ft | 440 kts | 296° |
| 2026-05-09 10:43 | -15.47438 | 173.18295 | 37922 ft | 438 kts | 296° |
| 2026-05-09 10:44 | -15.44522 | 173.12754 | 37923 ft | 436 kts | 296° |
| 2026-05-09 10:44 | -15.41613 | 173.07233 | 37922 ft | 436 kts | 296° |
| 2026-05-09 10:46 | -15.34350 | 172.93461 | 37922 ft | 436 kts | 296° |
| 2026-05-09 10:46 | -15.31431 | 172.87934 | 37923 ft | 436 kts | 296° |
| 2026-05-09 10:47 | -15.28511 | 172.82407 | 37920 ft | 437 kts | 296° |
| 2026-05-09 10:47 | -15.25593 | 172.76889 | 37922 ft | 437 kts | 296° |
| 2026-05-09 10:48 | -15.22693 | 172.71411 | 37921 ft | 437 kts | 296° |
| 2026-05-09 10:48 | -15.19771 | 172.65894 | 37922 ft | 437 kts | 296° |
| 2026-05-09 10:49 | -15.16845 | 172.60374 | 37922 ft | 437 kts | 296° |
| 2026-05-09 10:49 | -15.13918 | 172.54853 | 37910 ft | 437 kts | 296° |
| 2026-05-09 10:50 | -15.10988 | 172.49335 | 37907 ft | 438 kts | 297° |
| 2026-05-09 10:50 | -15.08048 | 172.43801 | 37909 ft | 438 kts | 297° |
| 2026-05-09 10:51 | -15.05128 | 172.38309 | 37926 ft | 438 kts | 297° |
| 2026-05-09 10:51 | -15.02189 | 172.32782 | 37929 ft | 438 kts | 297° |
| 2026-05-09 10:52 | -14.99333 | 172.27227 | 37917 ft | 435 kts | 292° |
| 2026-05-09 10:52 | -14.96793 | 172.21540 | 37917 ft | 436 kts | 293° |
| 2026-05-09 10:53 | -14.94248 | 172.15849 | 37918 ft | 435 kts | 293° |
| 2026-05-09 10:53 | -14.91718 | 172.10200 | 37911 ft | 436 kts | 293° |
| 2026-05-09 10:54 | -14.89171 | 172.04520 | 37912 ft | 436 kts | 293° |
| 2026-05-09 10:54 | -14.86623 | 171.98844 | 37923 ft | 435 kts | 293° |
| 2026-05-09 10:55 | -14.84069 | 171.93158 | 37921 ft | 435 kts | 293° |
| 2026-05-09 10:55 | -14.81518 | 171.87487 | 37914 ft | 435 kts | 293° |
| 2026-05-09 10:56 | -14.78963 | 171.81812 | 37916 ft | 435 kts | 293° |
| 2026-05-09 10:56 | -14.76411 | 171.76146 | 37903 ft | 435 kts | 293° |
| 2026-05-09 10:57 | -14.73857 | 171.70481 | 37900 ft | 435 kts | 293° |
| 2026-05-09 10:57 | -14.71313 | 171.64842 | 37903 ft | 435 kts | 293° |
| 2026-05-09 10:58 | -14.68755 | 171.59177 | 37908 ft | 435 kts | 293° |
| 2026-05-09 10:58 | -14.66195 | 171.53513 | 37906 ft | 435 kts | 293° |
| 2026-05-09 10:59 | -14.63630 | 171.47842 | 37909 ft | 435 kts | 293° |
| 2026-05-09 10:59 | -14.61065 | 171.42175 | 37910 ft | 435 kts | 293° |
| 2026-05-09 11:00 | -14.58500 | 171.36512 | 37910 ft | 435 kts | 293° |
| 2026-05-09 11:00 | -14.55949 | 171.30883 | 37913 ft | 436 kts | 293° |
| 2026-05-09 11:01 | -14.53379 | 171.25218 | 37913 ft | 435 kts | 294° |
| 2026-05-09 11:01 | -14.50814 | 171.19568 | 37915 ft | 435 kts | 294° |
| 2026-05-09 11:02 | -14.48245 | 171.13914 | 37910 ft | 435 kts | 294° |
| 2026-05-09 11:02 | -14.45675 | 171.08261 | 37914 ft | 435 kts | 294° |
| 2026-05-09 11:03 | -14.43106 | 171.02615 | 37907 ft | 435 kts | 294° |
| 2026-05-09 11:03 | -14.40531 | 170.96961 | 37909 ft | 435 kts | 294° |
| 2026-05-09 11:04 | -14.37974 | 170.91349 | 37908 ft | 435 kts | 294° |
| 2026-05-09 11:04 | -14.35400 | 170.85706 | 37918 ft | 434 kts | 294° |
| 2026-05-09 11:05 | -14.32826 | 170.80067 | 37918 ft | 434 kts | 294° |
| 2026-05-09 11:05 | -14.30253 | 170.74433 | 37916 ft | 434 kts | 294° |
| 2026-05-09 11:06 | -14.27681 | 170.68805 | 37914 ft | 434 kts | 294° |
| 2026-05-09 11:06 | -14.25125 | 170.63216 | 37912 ft | 433 kts | 294° |
| 2026-05-09 11:07 | -14.22550 | 170.57592 | 37910 ft | 433 kts | 294° |
| 2026-05-09 11:07 | -14.20411 | 170.52922 | 37910 ft | 433 kts | 293° |
| 2026-05-09 11:08 | -14.17839 | 170.47312 | 37913 ft | 433 kts | 293° |
| 2026-05-09 11:08 | -14.15269 | 170.41708 | 37908 ft | 432 kts | 293° |
| 2026-05-09 11:09 | -14.12698 | 170.36106 | 37910 ft | 432 kts | 293° |
| 2026-05-09 11:09 | -14.10126 | 170.30508 | 37909 ft | 432 kts | 293° |
| 2026-05-09 11:10 | -14.07553 | 170.24911 | 37905 ft | 432 kts | 293° |
| 2026-05-09 11:10 | -14.04982 | 170.19321 | 37904 ft | 432 kts | 293° |
| 2026-05-09 11:11 | -14.02410 | 170.13735 | 37906 ft | 432 kts | 293° |
| 2026-05-09 11:11 | -13.99847 | 170.08170 | 37897 ft | 432 kts | 293° |
| 2026-05-09 11:12 | -13.97266 | 170.02574 | 37896 ft | 432 kts | 293° |
| 2026-05-09 11:12 | -13.94689 | 169.96987 | 37900 ft | 432 kts | 293° |
| 2026-05-09 11:13 | -13.92119 | 169.91421 | 37902 ft | 432 kts | 293° |
| 2026-05-09 11:13 | -13.89534 | 169.85825 | 37905 ft | 433 kts | 293° |
| 2026-05-09 11:14 | -13.86944 | 169.80223 | 37906 ft | 433 kts | 293° |
| 2026-05-09 11:14 | -13.81998 | 169.69538 | 37905 ft | 431 kts | 293° |
| 2026-05-09 11:15 | -13.76864 | 169.58461 | 37906 ft | 431 kts | 293° |
| 2026-05-09 11:15 | -13.71699 | 169.47331 | 37906 ft | 431 kts | 293° |
| 2026-05-09 11:16 | -13.66526 | 169.36204 | 37905 ft | 429 kts | 293° |
| 2026-05-09 11:16 | -13.61361 | 169.25104 | 37906 ft | 431 kts | 293° |
| 2026-05-09 11:17 | -13.49440 | 168.99574 | 37907 ft | 431 kts | 293° |
| 2026-05-09 11:17 | -13.32398 | 168.63014 | 37625 ft | 403 kts | 296° |
| 2026-05-09 11:17 | -13.28383 | 168.54201 | 36653 ft | 404 kts | 293° |
| 2026-05-09 11:18 | -13.27193 | 168.51634 | 37268 ft | 391 kts | 296° |
| 2026-05-09 11:18 | -13.25834 | 168.49275 | 37948 ft | 378 kts | 302° |
| 2026-05-09 11:18 | -13.24349 | 168.47072 | 38360 ft | 370 kts | 301° |
| 2026-05-09 11:19 | -13.21669 | 168.42521 | 38163 ft | 378 kts | 293° |
| 2026-05-09 11:19 | -13.20699 | 168.40018 | 37764 ft | 390 kts | 286° |
| 2026-05-09 11:19 | -13.19825 | 168.37317 | 37276 ft | 405 kts | 289° |
| 2026-05-09 11:19 | -13.18804 | 168.34632 | 37539 ft | 402 kts | 291° |
| 2026-05-09 11:20 | -13.17691 | 168.32018 | 37885 ft | 397 kts | 293° |
| 2026-05-09 11:20 | -13.15310 | 168.26841 | 37899 ft | 404 kts | 294° |
| 2026-05-09 11:21 | -13.07921 | 168.11205 | 37901 ft | 424 kts | 294° |
| 2026-05-09 11:21 | -13.02695 | 168.00138 | 37900 ft | 435 kts | 294° |
| 2026-05-09 11:21 | -12.97413 | 167.88971 | 37900 ft | 434 kts | 294° |
| 2026-05-09 11:22 | -12.86909 | 167.66812 | 37895 ft | 434 kts | 294° |
| 2026-05-09 11:22 | -12.76319 | 167.44528 | 37885 ft | 436 kts | 294° |
| 2026-05-09 11:23 | -12.65649 | 167.22142 | 37895 ft | 438 kts | 295° |
| 2026-05-09 11:23 | -12.54922 | 166.99691 | 37903 ft | 438 kts | 295° |
| 2026-05-09 11:24 | -12.44192 | 166.77295 | 37888 ft | 438 kts | 295° |
| 2026-05-09 11:24 | -12.33439 | 166.54909 | 37879 ft | 439 kts | 295° |
| 2026-05-09 11:25 | -12.22698 | 166.32593 | 37882 ft | 440 kts | 295° |
| 2026-05-09 11:25 | -12.12365 | 166.09851 | 37898 ft | 441 kts | 292° |
| 2026-05-09 11:26 | -12.02517 | 165.86889 | 37884 ft | 441 kts | 292° |
| 2026-05-09 11:26 | -11.92638 | 165.63960 | 37882 ft | 441 kts | 293° |
| 2026-05-09 11:27 | -11.82737 | 165.41038 | 37884 ft | 441 kts | 293° |
| 2026-05-09 11:27 | -11.72813 | 165.18122 | 37882 ft | 441 kts | 293° |
| 2026-05-09 11:28 | -11.62863 | 164.95203 | 37879 ft | 441 kts | 293° |
| 2026-05-09 11:28 | -11.52895 | 164.72308 | 37880 ft | 441 kts | 293° |
| 2026-05-09 11:28 | -11.49243 | 164.63930 | 36922 ft | 439 kts | 293° |
| 2026-05-09 11:29 | -11.47996 | 164.61071 | 36150 ft | 442 kts | 294° |
| 2026-05-09 11:29 | -11.46759 | 164.58236 | 35370 ft | 445 kts | 294° |
| 2026-05-09 11:29 | -11.45493 | 164.55336 | 34573 ft | 449 kts | 294° |
| 2026-05-09 11:29 | -11.44218 | 164.52415 | 33791 ft | 452 kts | 294° |
| 2026-05-09 11:30 | -11.42937 | 164.49482 | 32955 ft | 455 kts | 294° |
| 2026-05-09 11:30 | -11.41645 | 164.46524 | 32153 ft | 457 kts | 294° |
| 2026-05-09 11:30 | -11.40350 | 164.43563 | 31338 ft | 459 kts | 294° |
| 2026-05-09 11:30 | -11.39048 | 164.40585 | 30547 ft | 461 kts | 294° |
| 2026-05-09 11:31 | -11.37751 | 164.37611 | 29871 ft | 459 kts | 295° |
| 2026-05-09 11:31 | -11.36446 | 164.34640 | 28963 ft | 461 kts | 294° |
| 2026-05-09 11:31 | -11.35147 | 164.31680 | 28445 ft | 454 kts | 294° |
| 2026-05-09 11:31 | -11.33865 | 164.28748 | 27825 ft | 450 kts | 294° |
| 2026-05-09 11:32 | -11.32593 | 164.25841 | 27183 ft | 447 kts | 294° |
| 2026-05-09 11:32 | -11.31331 | 164.22957 | 26557 ft | 444 kts | 294° |
| 2026-05-09 11:32 | -11.30094 | 164.20135 | 25966 ft | 441 kts | 294° |
| 2026-05-09 11:32 | -11.28847 | 164.17290 | 25379 ft | 438 kts | 294° |
| 2026-05-09 11:33 | -11.27607 | 164.14459 | 24799 ft | 436 kts | 294° |
| 2026-05-09 11:33 | -11.26376 | 164.11654 | 24308 ft | 431 kts | 294° |
| 2026-05-09 11:33 | -11.23934 | 164.06087 | 23833 ft | 433 kts | 294° |
| 2026-05-09 11:34 | -11.22699 | 164.03274 | 23618 ft | 434 kts | 294° |
| 2026-05-09 11:34 | -11.21465 | 164.00465 | 23393 ft | 432 kts | 294° |
| 2026-05-09 11:34 | -11.20241 | 163.97677 | 23141 ft | 429 kts | 294° |
| 2026-05-09 11:34 | -11.19042 | 163.94947 | 22889 ft | 427 kts | 294° |
| 2026-05-09 11:35 | -11.17829 | 163.92188 | 22641 ft | 426 kts | 294° |
| 2026-05-09 11:35 | -11.16621 | 163.89441 | 22383 ft | 424 kts | 294° |
| 2026-05-09 11:35 | -11.15417 | 163.86701 | 22131 ft | 422 kts | 294° |
| 2026-05-09 11:35 | -11.14217 | 163.83973 | 21884 ft | 420 kts | 294° |
| 2026-05-09 11:36 | -11.13024 | 163.81263 | 21639 ft | 419 kts | 294° |
| 2026-05-09 11:36 | -11.11834 | 163.78559 | 21392 ft | 417 kts | 295° |
| 2026-05-09 11:36 | -11.10651 | 163.75871 | 21141 ft | 415 kts | 295° |
| 2026-05-09 11:36 | -11.09470 | 163.73191 | 20915 ft | 414 kts | 295° |
| 2026-05-09 11:37 | -11.08311 | 163.70561 | 20682 ft | 412 kts | 295° |
| 2026-05-09 11:37 | -11.07138 | 163.67898 | 20443 ft | 411 kts | 295° |
| 2026-05-09 11:37 | -11.05969 | 163.65248 | 20215 ft | 409 kts | 295° |
| 2026-05-09 11:37 | -11.04804 | 163.62605 | 19981 ft | 407 kts | 295° |
| 2026-05-09 11:38 | -11.03647 | 163.59981 | 19752 ft | 406 kts | 295° |
| 2026-05-09 11:38 | -11.02492 | 163.57364 | 19524 ft | 405 kts | 295° |
| 2026-05-09 11:38 | -11.01341 | 163.54755 | 19295 ft | 404 kts | 295° |
| 2026-05-09 11:38 | -11.00191 | 163.52150 | 19074 ft | 402 kts | 295° |
| 2026-05-09 11:39 | -10.99056 | 163.49580 | 18849 ft | 401 kts | 295° |
| 2026-05-09 11:39 | -10.97916 | 163.46998 | 18628 ft | 399 kts | 295° |
| 2026-05-09 11:39 | -10.96779 | 163.44423 | 18409 ft | 398 kts | 295° |
| 2026-05-09 11:40 | -10.94512 | 163.39293 | 17943 ft | 396 kts | 295° |
| 2026-05-09 11:40 | -10.93381 | 163.36736 | 17692 ft | 394 kts | 295° |
| 2026-05-09 11:40 | -10.92270 | 163.34224 | 17437 ft | 392 kts | 295° |
| 2026-05-09 11:40 | -10.91153 | 163.31699 | 17185 ft | 391 kts | 295° |
| 2026-05-09 11:41 | -10.90038 | 163.29178 | 16940 ft | 389 kts | 295° |
| 2026-05-09 11:41 | -10.88929 | 163.26672 | 16694 ft | 387 kts | 296° |
| 2026-05-09 11:41 | -10.87826 | 163.24180 | 16448 ft | 386 kts | 296° |
| 2026-05-09 11:41 | -10.86723 | 163.21689 | 16203 ft | 385 kts | 296° |
| 2026-05-09 11:42 | -10.85624 | 163.19208 | 15973 ft | 383 kts | 296° |
| 2026-05-09 11:42 | -10.84528 | 163.16735 | 15731 ft | 382 kts | 296° |
| 2026-05-09 11:42 | -10.83453 | 163.14307 | 15499 ft | 380 kts | 296° |
| 2026-05-09 11:42 | -10.82366 | 163.11856 | 15266 ft | 379 kts | 296° |
| 2026-05-09 11:43 | -10.81280 | 163.09407 | 15029 ft | 379 kts | 296° |
| 2026-05-09 11:43 | -10.80198 | 163.06966 | 14797 ft | 378 kts | 296° |
| 2026-05-09 11:43 | -10.79119 | 163.04534 | 14568 ft | 376 kts | 296° |
| 2026-05-09 11:43 | -10.78045 | 163.02113 | 14341 ft | 375 kts | 296° |
| 2026-05-09 11:44 | -10.76973 | 162.99697 | 14119 ft | 374 kts | 296° |
| 2026-05-09 11:44 | -10.75904 | 162.97290 | 13890 ft | 373 kts | 296° |
| 2026-05-09 11:44 | -10.74840 | 162.94893 | 13668 ft | 371 kts | 296° |
| 2026-05-09 11:44 | -10.73779 | 162.92503 | 13417 ft | 370 kts | 296° |
| 2026-05-09 11:45 | -10.72720 | 162.90121 | 13164 ft | 368 kts | 296° |
| 2026-05-09 11:45 | -10.71669 | 162.87755 | 12917 ft | 367 kts | 296° |
| 2026-05-09 11:45 | -10.70619 | 162.85394 | 12673 ft | 365 kts | 296° |
| 2026-05-09 11:45 | -10.69574 | 162.83044 | 12421 ft | 364 kts | 296° |
| 2026-05-09 11:46 | -10.68533 | 162.80704 | 12181 ft | 363 kts | 296° |
| 2026-05-09 11:46 | -10.67507 | 162.78396 | 11943 ft | 362 kts | 296° |
| 2026-05-09 11:46 | -10.66471 | 162.76068 | 11703 ft | 360 kts | 296° |
| 2026-05-09 11:46 | -10.65441 | 162.73753 | 11459 ft | 359 kts | 296° |
| 2026-05-09 11:47 | -10.64410 | 162.71437 | 11220 ft | 357 kts | 296° |
| 2026-05-09 11:47 | -10.63386 | 162.69139 | 10996 ft | 356 kts | 296° |
| 2026-05-09 11:47 | -10.62365 | 162.66846 | 10760 ft | 355 kts | 296° |
| 2026-05-09 11:47 | -10.61348 | 162.64562 | 10563 ft | 352 kts | 296° |
| 2026-05-09 11:48 | -10.60352 | 162.62326 | 10468 ft | 340 kts | 296° |
| 2026-05-09 11:48 | -10.59404 | 162.60194 | 10358 ft | 328 kts | 296° |
| 2026-05-09 11:48 | -10.58482 | 162.58122 | 10240 ft | 315 kts | 296° |
| 2026-05-09 11:48 | -10.57586 | 162.56111 | 9956 ft | 309 kts | 296° |
| 2026-05-09 11:49 | -10.56710 | 162.54147 | 9780 ft | 300 kts | 296° |
| 2026-05-09 11:49 | -10.55846 | 162.52212 | 9663 ft | 302 kts | 296° |
| 2026-05-09 11:49 | -10.54974 | 162.50261 | 9534 ft | 303 kts | 296° |
| 2026-05-09 11:49 | -10.54106 | 162.48316 | 9406 ft | 301 kts | 296° |
| 2026-05-09 11:50 | -10.53252 | 162.46403 | 9282 ft | 301 kts | 296° |
| 2026-05-09 11:50 | -10.52384 | 162.44456 | 9151 ft | 301 kts | 296° |
| 2026-05-09 11:50 | -10.51520 | 162.42522 | 9028 ft | 300 kts | 296° |
| 2026-05-09 11:50 | -10.50659 | 162.40593 | 8903 ft | 299 kts | 296° |
| 2026-05-09 11:51 | -10.49800 | 162.38669 | 8779 ft | 298 kts | 296° |
| 2026-05-09 11:51 | -10.48941 | 162.36746 | 8657 ft | 298 kts | 296° |
| 2026-05-09 11:51 | -10.48082 | 162.34824 | 8537 ft | 298 kts | 296° |
| 2026-05-09 11:51 | -10.47238 | 162.32933 | 8416 ft | 297 kts | 296° |
| 2026-05-09 11:52 | -10.46384 | 162.31021 | 8293 ft | 296 kts | 296° |
| 2026-05-09 11:52 | -10.45532 | 162.29117 | 8172 ft | 296 kts | 296° |
| 2026-05-09 11:52 | -10.44680 | 162.27210 | 8051 ft | 296 kts | 296° |
| 2026-05-09 11:52 | -10.43828 | 162.25304 | 7936 ft | 296 kts | 296° |
| 2026-05-09 11:53 | -10.42979 | 162.23404 | 7813 ft | 295 kts | 296° |
| 2026-05-09 11:53 | -10.42130 | 162.21507 | 7767 ft | 294 kts | 296° |
| 2026-05-09 11:53 | -10.41285 | 162.19619 | 7696 ft | 294 kts | 296° |
| 2026-05-09 11:53 | -10.40439 | 162.17729 | 7623 ft | 293 kts | 296° |
| 2026-05-09 11:54 | -10.39606 | 162.15867 | 7552 ft | 293 kts | 296° |
| 2026-05-09 11:54 | -10.38763 | 162.13984 | 7481 ft | 292 kts | 296° |
| 2026-05-09 11:54 | -10.37919 | 162.12100 | 7411 ft | 292 kts | 296° |
| 2026-05-09 11:54 | -10.37079 | 162.10222 | 7342 ft | 293 kts | 296° |
| 2026-05-09 11:55 | -10.36237 | 162.08343 | 7271 ft | 291 kts | 296° |
| 2026-05-09 11:56 | -10.32041 | 161.98978 | 6935 ft | 291 kts | 296° |
| 2026-05-09 11:56 | -10.31485 | 161.97739 | 6916 ft | 290 kts | 296° |
| 2026-05-09 11:56 | -10.30649 | 161.95873 | 6893 ft | 291 kts | 296° |
| 2026-05-09 11:57 | -10.29810 | 161.94004 | 6863 ft | 290 kts | 296° |
| 2026-05-09 11:57 | -10.28974 | 161.92139 | 6844 ft | 290 kts | 296° |
| 2026-05-09 11:57 | -10.28134 | 161.90269 | 6823 ft | 291 kts | 296° |
| 2026-05-09 11:57 | -10.27297 | 161.88403 | 6800 ft | 290 kts | 296° |
| 2026-05-09 11:58 | -10.26470 | 161.86560 | 6776 ft | 290 kts | 296° |
| 2026-05-09 11:58 | -10.25624 | 161.84674 | 6757 ft | 290 kts | 296° |
| 2026-05-09 11:58 | -10.24797 | 161.82832 | 6722 ft | 290 kts | 296° |
| 2026-05-09 11:58 | -10.23950 | 161.80947 | 6707 ft | 290 kts | 296° |
| 2026-05-09 11:59 | -10.23124 | 161.79109 | 6684 ft | 290 kts | 296° |
| 2026-05-09 11:59 | -10.22287 | 161.77245 | 6662 ft | 290 kts | 296° |
| 2026-05-09 11:59 | -10.21450 | 161.75380 | 6637 ft | 289 kts | 296° |
| 2026-05-09 11:59 | -10.20615 | 161.73522 | 6617 ft | 290 kts | 296° |
| 2026-05-09 12:00 | -10.19777 | 161.71658 | 6592 ft | 290 kts | 296° |
| 2026-05-09 12:00 | -10.18940 | 161.69797 | 6568 ft | 289 kts | 296° |
| 2026-05-09 12:00 | -10.18103 | 161.67934 | 6544 ft | 290 kts | 296° |
| 2026-05-09 12:00 | -10.17267 | 161.66074 | 6520 ft | 290 kts | 296° |
| 2026-05-09 12:01 | -10.16431 | 161.64216 | 6498 ft | 290 kts | 296° |
| 2026-05-09 12:01 | -10.15594 | 161.62357 | 6473 ft | 289 kts | 296° |
| 2026-05-09 12:01 | -10.14768 | 161.60521 | 6453 ft | 289 kts | 296° |
| 2026-05-09 12:01 | -10.13934 | 161.58667 | 6427 ft | 289 kts | 296° |
| 2026-05-09 12:02 | -10.13098 | 161.56808 | 6415 ft | 290 kts | 296° |
| 2026-05-09 12:02 | -10.12262 | 161.54951 | 6379 ft | 289 kts | 296° |
| 2026-05-09 12:02 | -10.11428 | 161.53098 | 6355 ft | 289 kts | 296° |
| 2026-05-09 12:02 | -10.10591 | 161.51243 | 6332 ft | 289 kts | 296° |
| 2026-05-09 12:03 | -10.09753 | 161.49382 | 6309 ft | 291 kts | 296° |
| 2026-05-09 12:03 | -10.08913 | 161.47517 | 6287 ft | 289 kts | 296° |
| 2026-05-09 12:03 | -10.08075 | 161.45656 | 6263 ft | 288 kts | 296° |
| 2026-05-09 12:03 | -10.07242 | 161.43807 | 6238 ft | 288 kts | 297° |
| 2026-05-09 12:04 | -10.06405 | 161.41949 | 6209 ft | 290 kts | 297° |
| 2026-05-09 12:04 | -10.05563 | 161.40081 | 6186 ft | 290 kts | 296° |
| 2026-05-09 12:04 | -10.04736 | 161.38245 | 6162 ft | 291 kts | 297° |
| 2026-05-09 12:04 | -10.03891 | 161.36370 | 6132 ft | 290 kts | 297° |
| 2026-05-09 12:05 | -10.03060 | 161.34524 | 6112 ft | 286 kts | 297° |
| 2026-05-09 12:05 | -10.02227 | 161.32679 | 6092 ft | 289 kts | 297° |
| 2026-05-09 12:05 | -10.01394 | 161.30835 | 6067 ft | 286 kts | 296° |
| 2026-05-09 12:05 | -10.00568 | 161.29003 | 6039 ft | 286 kts | 296° |
| 2026-05-09 12:06 | -9.99735 | 161.27159 | 6018 ft | 287 kts | 296° |
| 2026-05-09 12:06 | -9.98905 | 161.25320 | 5997 ft | 286 kts | 296° |
| 2026-05-09 12:06 | -9.98074 | 161.23480 | 5968 ft | 288 kts | 297° |
| 2026-05-09 12:06 | -9.97240 | 161.21631 | 5948 ft | 287 kts | 297° |
| 2026-05-09 12:07 | -9.96412 | 161.19795 | 5921 ft | 286 kts | 297° |
| 2026-05-09 12:07 | -9.95581 | 161.17956 | 5896 ft | 287 kts | 297° |
| 2026-05-09 12:07 | -9.94764 | 161.16147 | 5853 ft | 285 kts | 297° |
| 2026-05-09 12:07 | -9.93934 | 161.14312 | 5803 ft | 286 kts | 297° |
| 2026-05-09 12:08 | -9.93105 | 161.12478 | 5756 ft | 286 kts | 297° |
| 2026-05-09 12:08 | -9.92274 | 161.10640 | 5706 ft | 286 kts | 297° |
| 2026-05-09 12:08 | -9.91447 | 161.08811 | 5660 ft | 286 kts | 297° |
| 2026-05-09 12:08 | -9.90618 | 161.06975 | 5610 ft | 285 kts | 297° |
| 2026-05-09 12:09 | -9.89789 | 161.05141 | 5560 ft | 287 kts | 297° |
| 2026-05-09 12:09 | -9.88959 | 161.03308 | 5511 ft | 286 kts | 297° |
| 2026-05-09 12:09 | -9.88132 | 161.01481 | 5451 ft | 285 kts | 297° |
| 2026-05-09 12:10 | -9.85670 | 160.96058 | 5321 ft | 284 kts | 300° |
| 2026-05-09 12:10 | -9.84634 | 160.94359 | 5275 ft | 283 kts | 308° |
| 2026-05-09 12:10 | -9.83522 | 160.92719 | 5210 ft | 282 kts | 307° |
| 2026-05-09 12:11 | -9.82424 | 160.91076 | 5177 ft | 281 kts | 307° |
| 2026-05-09 12:11 | -9.81328 | 160.89432 | 5129 ft | 280 kts | 307° |
| 2026-05-09 12:11 | -9.80239 | 160.87798 | 5086 ft | 279 kts | 307° |
| 2026-05-09 12:11 | -9.79158 | 160.86174 | 5037 ft | 277 kts | 307° |
| 2026-05-09 12:12 | -9.78078 | 160.84556 | 4991 ft | 277 kts | 308° |
| 2026-05-09 12:12 | -9.76997 | 160.82938 | 4943 ft | 277 kts | 308° |
| 2026-05-09 12:12 | -9.75917 | 160.81322 | 4893 ft | 277 kts | 308° |
| 2026-05-09 12:12 | -9.74838 | 160.79707 | 4846 ft | 277 kts | 308° |
| 2026-05-09 12:13 | -9.73758 | 160.78093 | 4799 ft | 276 kts | 308° |
| 2026-05-09 12:13 | -9.72680 | 160.76483 | 4754 ft | 277 kts | 308° |
| 2026-05-09 12:13 | -9.71594 | 160.74859 | 4705 ft | 278 kts | 308° |
| 2026-05-09 12:13 | -9.70523 | 160.73256 | 4663 ft | 278 kts | 308° |
| 2026-05-09 12:14 | -9.69440 | 160.71636 | 4615 ft | 277 kts | 308° |
| 2026-05-09 12:14 | -9.68358 | 160.70017 | 4567 ft | 277 kts | 308° |
| 2026-05-09 12:14 | -9.67277 | 160.68400 | 4515 ft | 277 kts | 308° |
| 2026-05-09 12:14 | -9.66192 | 160.66778 | 4448 ft | 277 kts | 308° |
| 2026-05-09 12:15 | -9.65129 | 160.65189 | 4368 ft | 266 kts | 308° |
| 2026-05-09 12:15 | -9.64117 | 160.63670 | 4288 ft | 254 kts | 308° |
| 2026-05-09 12:15 | -9.63146 | 160.62221 | 4203 ft | 243 kts | 307° |
| 2026-05-09 12:15 | -9.62202 | 160.60815 | 4142 ft | 243 kts | 307° |
| 2026-05-09 12:16 | -9.61251 | 160.59402 | 4066 ft | 241 kts | 307° |
| 2026-05-09 12:16 | -9.60310 | 160.58000 | 3991 ft | 240 kts | 307° |
| 2026-05-09 12:16 | -9.59372 | 160.56598 | 3918 ft | 240 kts | 307° |
| 2026-05-09 12:16 | -9.58431 | 160.55195 | 3838 ft | 240 kts | 307° |
| 2026-05-09 12:17 | -9.57503 | 160.53814 | 3775 ft | 240 kts | 306° |
| 2026-05-09 12:17 | -9.56559 | 160.52411 | 3705 ft | 241 kts | 306° |
| 2026-05-09 12:17 | -9.55616 | 160.51002 | 3633 ft | 241 kts | 306° |
| 2026-05-09 12:17 | -9.54675 | 160.49590 | 3552 ft | 241 kts | 306° |
| 2026-05-09 12:18 | -9.53737 | 160.48181 | 3477 ft | 240 kts | 306° |
| 2026-05-09 12:18 | -9.52797 | 160.46777 | 3409 ft | 242 kts | 307° |
| 2026-05-09 12:18 | -9.51849 | 160.45366 | 3336 ft | 242 kts | 307° |
| 2026-05-09 12:18 | -9.50905 | 160.43962 | 3267 ft | 239 kts | 306° |
| 2026-05-09 12:19 | -9.49991 | 160.42599 | 3184 ft | 227 kts | 306° |
| 2026-05-09 12:19 | -9.49130 | 160.41311 | 3099 ft | 215 kts | 306° |
| 2026-05-09 12:19 | -9.48323 | 160.40095 | 3042 ft | 210 kts | 307° |
| 2026-05-09 12:19 | -9.47519 | 160.38892 | 3028 ft | 201 kts | 306° |
| 2026-05-09 12:20 | -9.46737 | 160.37730 | 3040 ft | 201 kts | 307° |
| 2026-05-09 12:20 | -9.45951 | 160.36567 | 3036 ft | 200 kts | 307° |
| 2026-05-09 12:20 | -9.45172 | 160.35412 | 3037 ft | 199 kts | 307° |
| 2026-05-09 12:20 | -9.44384 | 160.34241 | 3035 ft | 201 kts | 307° |
| 2026-05-09 12:21 | -9.43605 | 160.33081 | 3038 ft | 198 kts | 306° |
| 2026-05-09 12:21 | -9.42821 | 160.31913 | 3040 ft | 201 kts | 306° |
| 2026-05-09 12:21 | -9.42058 | 160.30771 | 3015 ft | 190 kts | 307° |
| 2026-05-09 12:21 | -9.41325 | 160.29674 | 3023 ft | 191 kts | 307° |
| 2026-05-09 12:22 | -9.40576 | 160.28559 | 3015 ft | 190 kts | 307° |
| 2026-05-09 12:22 | -9.39841 | 160.27465 | 3014 ft | 190 kts | 307° |
| 2026-05-09 12:22 | -9.39101 | 160.26363 | 3011 ft | 187 kts | 307° |
| 2026-05-09 12:22 | -9.38392 | 160.25301 | 3011 ft | 178 kts | 306° |
| 2026-05-09 12:23 | -9.37712 | 160.24284 | 3054 ft | 176 kts | 306° |
| 2026-05-09 12:23 | -9.37030 | 160.23270 | 3004 ft | 166 kts | 307° |
| 2026-05-09 12:23 | -9.36430 | 160.22307 | 3006 ft | 163 kts | 291° |
| 2026-05-09 12:23 | -9.36435 | 160.21203 | 3025 ft | 160 kts | 246° |
| 2026-05-09 12:24 | -9.36989 | 160.20181 | 2755 ft | 169 kts | 240° |
| 2026-05-09 12:24 | -9.37536 | 160.19108 | 2374 ft | 170 kts | 244° |
| 2026-05-09 12:24 | -9.38020 | 160.18043 | 2056 ft | 164 kts | 246° |
| 2026-05-09 12:24 | -9.38452 | 160.16993 | 1845 ft | 161 kts | 248° |
| 2026-05-09 12:25 | -9.38842 | 160.15941 | 1715 ft | 160 kts | 250° |
| 2026-05-09 12:25 | -9.39206 | 160.14842 | 1566 ft | 169 kts | 251° |
| 2026-05-09 12:25 | -9.39596 | 160.13723 | 1356 ft | 169 kts | 250° |
| 2026-05-09 12:25 | -9.39962 | 160.12628 | 1154 ft | 167 kts | 251° |
| 2026-05-09 12:26 | -9.40337 | 160.11527 | 953 ft | 162 kts | 249° |
| 2026-05-09 12:26 | -9.40751 | 160.10490 | 875 ft | 156 kts | 244° |
| 2026-05-09 12:26 | -9.41197 | 160.09457 | 772 ft | 161 kts | 243° |
| 2026-05-09 12:26 | -9.41646 | 160.08406 | 541 ft | 161 kts | 246° |
| 2026-05-09 12:27 | -9.42063 | 160.07352 | 304 ft | 159 kts | 247° |
| 2026-05-09 12:27 | -9.42468 | 160.06319 | 47 ft | 154 kts | 246° |
| 2026-05-09 12:27 | -9.42811 | 160.05470 | 30 ft | 84 kts | 248° |
| 2026-05-09 12:27 | -9.43018 | 160.04956 | 32 ft | 61 kts | 249° |
| 2026-05-09 12:28 | -9.43075 | 160.04729 | 33 ft | 4 kts | 313° |
| 2026-05-09 12:28 | -9.43004 | 160.04702 | 35 ft | 15 kts | 339° |
| 2026-05-09 12:28 | -9.42895 | 160.04658 | 35 ft | 19 kts | 338° |
| 2026-05-09 12:28 | -9.42820 | 160.04579 | 36 ft | 13 kts | 238° |
| 2026-05-09 12:29 | -9.42847 | 160.04577 | 36 ft | 0 kts | 142° |